createdAt,value
2022-12-11T00:03:15.843Z,13.41
2022-12-11T00:04:51.985Z,13.37
2022-12-11T00:06:28.595Z,13.39
2022-12-11T00:08:20.558Z,13.40
2022-12-11T00:10:04.243Z,13.41
2022-12-11T00:11:36.338Z,13.45
2022-12-11T00:13:08.388Z,13.49
2022-12-11T00:14:54.304Z,13.49
2022-12-11T00:16:27.296Z,13.51
2022-12-11T00:18:01.604Z,13.48
2022-12-11T00:19:39.070Z,13.47
2022-12-11T00:21:13.606Z,13.48
2022-12-11T00:22:58.038Z,13.48
2022-12-11T00:28:24.439Z,13.43
2022-12-11T00:29:56.228Z,13.41
2022-12-11T00:31:28.001Z,13.38
2022-12-11T00:33:00.087Z,13.36
2022-12-11T00:34:32.481Z,13.32
2022-12-11T00:36:07.312Z,13.29
2022-12-11T00:37:41.893Z,13.33
2022-12-11T00:39:13.559Z,13.33
2022-12-11T00:40:53.741Z,13.33
2022-12-11T00:42:29.078Z,13.34
2022-12-11T00:44:00.710Z,13.39
2022-12-11T00:45:39.220Z,13.41
2022-12-11T00:47:10.805Z,13.45
2022-12-11T00:48:42.698Z,13.47
2022-12-11T01:06:51.026Z,13.52
2022-12-11T01:08:22.707Z,13.58
2022-12-11T01:10:13.066Z,13.59
2022-12-11T01:11:44.714Z,13.57
2022-12-11T01:13:16.341Z,13.53
2022-12-11T01:14:47.954Z,13.49
2022-12-11T01:16:19.614Z,13.42
2022-12-11T01:17:51.256Z,13.37
2022-12-11T01:19:23.001Z,13.36
2022-12-11T01:20:54.580Z,13.37
2022-12-11T01:22:26.165Z,13.34
2022-12-11T01:23:57.778Z,13.28
2022-12-11T01:25:29.368Z,13.18
2022-12-11T01:27:01.295Z,13.08
2022-12-11T01:28:33.163Z,12.99
2022-12-11T01:30:05.973Z,12.87
2022-12-11T01:31:38.698Z,12.75
2022-12-11T01:33:10.283Z,12.63
2022-12-11T01:34:42.009Z,12.55
2022-12-11T01:36:20.386Z,12.52
2022-12-11T01:37:52.100Z,12.49
2022-12-11T01:39:23.799Z,12.49
2022-12-11T01:40:55.461Z,12.54
2022-12-11T01:42:29.146Z,12.59
2022-12-11T01:44:00.862Z,12.64
2022-12-11T01:45:39.276Z,12.68
2022-12-11T01:47:11.001Z,12.73
2022-12-11T01:48:43.167Z,12.78
2022-12-11T01:50:15.517Z,12.79
2022-12-11T01:51:52.054Z,12.81
2022-12-11T01:53:36.390Z,12.78
2022-12-11T01:55:09.948Z,12.80
2022-12-11T01:56:42.375Z,12.82
2022-12-11T01:58:14.044Z,12.84
2022-12-11T01:59:45.941Z,12.85
2022-12-11T02:01:22.846Z,12.88
2022-12-11T02:02:54.483Z,12.89
2022-12-11T02:04:26.521Z,12.91
2022-12-11T02:06:01.346Z,12.98
2022-12-11T02:07:35.634Z,13.04
2022-12-11T02:09:08.270Z,13.07
2022-12-11T02:10:45.880Z,13.09
2022-12-11T02:12:28.288Z,13.10
2022-12-11T02:14:06.690Z,13.11
2022-12-11T02:15:41.815Z,13.12
2022-12-11T02:17:28.712Z,13.13
2022-12-11T02:19:00.753Z,13.16
2022-12-11T02:20:32.958Z,13.14
2022-12-11T02:22:06.177Z,13.15
2022-12-11T02:23:41.484Z,13.17
2022-12-11T02:25:25.499Z,13.16
2022-12-11T02:26:57.062Z,13.22
2022-12-11T02:28:46.314Z,13.27
2022-12-11T02:30:17.818Z,13.32
2022-12-11T02:31:54.783Z,13.40
2022-12-11T02:33:37.545Z,13.48
2022-12-11T02:35:19.730Z,13.50
2022-12-11T02:36:52.014Z,13.51
2022-12-11T02:38:26.350Z,13.55
2022-12-11T02:39:58.669Z,13.60
2022-12-11T02:41:31.061Z,13.68
2022-12-11T02:43:04.325Z,13.76
2022-12-11T02:44:36.341Z,13.80
2022-12-11T02:46:09.078Z,13.87
2022-12-11T02:47:41.384Z,13.87
2022-12-11T02:49:13.880Z,13.88
2022-12-11T02:50:47.444Z,13.84
2022-12-11T02:52:20.915Z,13.82
2022-12-11T02:53:54.430Z,13.80
2022-12-11T02:55:26.823Z,13.78
2022-12-11T02:57:06.983Z,13.71
2022-12-11T02:58:39.539Z,13.71
2022-12-11T03:00:12.018Z,13.67
2022-12-11T03:01:44.338Z,13.64
2022-12-11T03:03:16.477Z,13.59
2022-12-11T03:04:48.122Z,13.59
2022-12-11T03:06:20.574Z,13.58
2022-12-11T03:07:52.135Z,13.58
2022-12-11T03:09:24.365Z,13.55
2022-12-11T03:10:55.860Z,13.53
2022-12-11T03:12:31.619Z,13.49
2022-12-11T03:14:03.137Z,13.51
2022-12-11T03:15:42.189Z,13.52
2022-12-11T03:17:19.588Z,13.55
2022-12-11T03:18:51.682Z,13.58
2022-12-11T03:20:39.908Z,13.59
2022-12-11T03:22:12.647Z,13.62
2022-12-11T03:23:51.719Z,13.65
2022-12-11T03:25:23.972Z,13.70
2022-12-11T03:27:01.105Z,13.73
2022-12-11T03:28:35.666Z,13.76
2022-12-11T03:30:14.647Z,13.80
2022-12-11T03:31:48.360Z,13.87
2022-12-11T03:33:22.192Z,13.91
2022-12-11T03:35:01.148Z,13.96
2022-12-11T03:36:33.662Z,13.97
2022-12-11T03:38:16.390Z,13.90
2022-12-11T03:39:48.982Z,13.89
2022-12-11T03:41:21.682Z,13.87
2022-12-11T03:42:53.345Z,13.87
2022-12-11T03:44:25.120Z,13.83
2022-12-11T03:45:56.645Z,13.80
2022-12-11T03:47:28.379Z,13.80
2022-12-11T03:49:01.833Z,13.76
2022-12-11T03:50:33.646Z,13.74
2022-12-11T03:52:05.528Z,13.76
2022-12-11T03:53:37.299Z,13.74
2022-12-11T03:55:09.783Z,13.73
2022-12-11T03:56:41.797Z,13.70
2022-12-11T03:58:13.395Z,13.68
2022-12-11T03:59:45.031Z,13.65
2022-12-11T04:01:16.657Z,13.66
2022-12-11T04:03:12.706Z,13.66
2022-12-11T04:04:45.418Z,13.62
2022-12-11T04:06:17.108Z,13.58
2022-12-11T04:07:48.870Z,13.56
2022-12-11T04:09:20.541Z,13.56
2022-12-11T04:11:12.216Z,13.58
2022-12-11T04:12:44.005Z,13.58
2022-12-11T04:14:34.294Z,13.58
2022-12-11T04:16:06.250Z,13.61
2022-12-11T04:17:56.556Z,13.63
2022-12-11T04:19:46.834Z,13.63
2022-12-11T04:21:39.673Z,13.66
2022-12-11T04:23:33.640Z,13.67
2022-12-11T04:25:06.344Z,13.70
2022-12-11T04:26:37.987Z,13.77
2022-12-11T04:28:09.607Z,13.79
2022-12-11T04:29:41.258Z,13.83
2022-12-11T04:31:15.851Z,13.92
2022-12-11T04:32:47.523Z,13.98
2022-12-11T04:34:19.141Z,13.97
2022-12-11T04:35:50.759Z,13.97
2022-12-11T04:37:22.447Z,13.95
2022-12-11T04:38:54.087Z,13.90
2022-12-11T04:40:25.908Z,13.85
2022-12-11T04:41:57.547Z,13.80
2022-12-11T04:43:29.347Z,13.79
2022-12-11T04:45:00.913Z,13.74
2022-12-11T04:46:33.505Z,13.73
2022-12-11T04:48:05.272Z,13.70
2022-12-11T04:49:36.841Z,13.68
2022-12-11T04:51:08.625Z,13.68
2022-12-11T04:52:40.312Z,13.67
2022-12-11T04:54:11.895Z,13.68
2022-12-11T04:55:43.478Z,13.72
2022-12-11T04:57:14.999Z,13.73
2022-12-11T04:58:46.592Z,13.75
2022-12-11T05:00:18.442Z,13.76
2022-12-11T05:01:50.057Z,13.81
2022-12-11T05:03:21.763Z,13.84
2022-12-11T05:04:53.291Z,13.86
2022-12-11T05:06:24.885Z,13.89
2022-12-11T05:07:56.468Z,13.92
2022-12-11T05:09:28.229Z,13.98
2022-12-11T05:11:00.599Z,13.97
2022-12-11T05:12:32.457Z,13.98
2022-12-11T05:14:04.174Z,13.97
2022-12-11T05:15:35.961Z,13.96
2022-12-11T05:17:07.486Z,13.95
2022-12-11T05:18:39.232Z,13.95
2022-12-11T05:20:11.362Z,13.93
2022-12-11T05:21:43.174Z,13.89
2022-12-11T05:23:15.561Z,13.84
2022-12-11T05:24:47.145Z,13.83
2022-12-11T05:26:19.337Z,13.80
2022-12-11T05:27:50.866Z,13.79
2022-12-11T05:29:22.659Z,13.75
2022-12-11T05:30:57.531Z,13.77
2022-12-11T05:32:29.108Z,13.80
2022-12-11T05:34:00.722Z,13.81
2022-12-11T05:35:32.877Z,13.78
2022-12-11T05:37:04.526Z,13.75
2022-12-11T05:38:36.347Z,13.77
2022-12-11T05:40:08.449Z,13.80
2022-12-11T05:41:40.428Z,13.79
2022-12-11T05:43:12.341Z,13.80
2022-12-11T05:44:43.971Z,13.81
2022-12-11T05:46:17.073Z,13.83
2022-12-11T05:47:49.241Z,13.84
2022-12-11T05:49:23.556Z,13.81
2022-12-11T05:51:00.071Z,13.82
2022-12-11T05:52:32.500Z,13.80
2022-12-11T05:54:04.224Z,13.81
2022-12-11T05:55:35.870Z,13.87
2022-12-11T05:57:07.597Z,13.93
2022-12-11T05:58:39.199Z,13.96
2022-12-11T06:00:12.081Z,14.02
2022-12-11T06:01:44.520Z,14.09
2022-12-11T06:03:16.196Z,14.12
2022-12-11T06:04:47.872Z,14.12
2022-12-11T06:06:19.677Z,14.08
2022-12-11T06:07:51.214Z,14.12
2022-12-11T06:09:22.799Z,14.15
2022-12-11T06:10:54.827Z,14.19
2022-12-11T06:12:27.328Z,14.20
2022-12-11T06:13:59.081Z,14.14
2022-12-11T06:15:30.723Z,14.12
2022-12-11T06:17:02.852Z,14.09
2022-12-11T06:18:37.919Z,14.10
2022-12-11T06:20:09.618Z,14.12
2022-12-11T06:21:41.296Z,14.14
2022-12-11T06:23:13.287Z,14.13
2022-12-11T06:24:44.843Z,14.15
2022-12-11T06:26:18.076Z,14.10
2022-12-11T06:27:50.238Z,14.11
2022-12-11T06:29:21.850Z,14.15
2022-12-11T06:30:54.371Z,14.15
2022-12-11T06:32:26.544Z,14.18
2022-12-11T06:33:58.145Z,14.17
2022-12-11T06:35:30.826Z,14.12
2022-12-11T06:37:07.884Z,14.08
2022-12-11T06:38:39.976Z,14.05
2022-12-11T06:40:21.853Z,14.03
2022-12-11T06:42:19.649Z,14.01
2022-12-11T06:44:18.906Z,14.01
2022-12-11T06:46:06.403Z,14.00
2022-12-11T06:47:49.847Z,13.96
2022-12-11T06:49:26.877Z,13.94
2022-12-11T06:50:58.495Z,13.94
2022-12-11T06:52:30.452Z,13.94
2022-12-11T06:54:03.380Z,13.95
2022-12-11T06:55:38.995Z,13.97
2022-12-11T06:57:10.672Z,13.96
2022-12-11T06:58:42.736Z,13.95
2022-12-11T07:00:15.472Z,13.97
2022-12-11T07:03:33.671Z,14.01
2022-12-11T07:05:08.060Z,14.07
2022-12-11T07:06:42.914Z,14.09
2022-12-11T07:08:16.659Z,14.12
2022-12-11T07:09:48.563Z,14.16
2022-12-11T07:11:23.608Z,14.18
2022-12-11T07:12:55.733Z,14.18
2022-12-11T07:14:28.801Z,14.14
2022-12-11T07:16:02.029Z,14.10
2022-12-11T07:17:33.660Z,14.12
2022-12-11T07:19:05.283Z,14.16
2022-12-11T07:20:36.829Z,14.15
2022-12-11T07:22:08.451Z,14.17
2022-12-11T07:23:40.292Z,14.13
2022-12-11T07:25:14.627Z,14.12
2022-12-11T07:26:49.454Z,14.13
2022-12-11T07:28:22.518Z,14.10
2022-12-11T07:29:56.614Z,14.10
2022-12-11T07:33:34.540Z,14.10
2022-12-11T07:35:13.990Z,14.14
2022-12-11T07:36:48.280Z,14.12
2022-12-11T07:38:21.825Z,14.14
2022-12-11T07:39:53.966Z,14.15
2022-12-11T07:41:27.808Z,14.11
2022-12-11T07:43:01.312Z,14.12
2022-12-11T07:44:33.176Z,14.13
2022-12-11T07:46:05.669Z,14.12
2022-12-11T07:47:37.676Z,14.11
2022-12-11T07:49:09.376Z,14.14
2022-12-11T07:50:40.937Z,14.12
2022-12-11T07:52:13.172Z,14.10
2022-12-11T07:53:52.561Z,14.11
2022-12-11T07:55:30.652Z,14.14
2022-12-11T07:57:08.170Z,14.11
2022-12-11T07:58:46.475Z,14.10
2022-12-11T08:00:20.731Z,14.09
2022-12-11T08:01:52.394Z,14.11
2022-12-11T08:03:24.577Z,14.14
2022-12-11T08:04:57.976Z,14.15
2022-12-11T08:06:36.036Z,14.16
2022-12-11T08:08:07.596Z,14.12
2022-12-11T08:09:39.155Z,14.11
2022-12-11T08:11:15.287Z,14.14
2022-12-11T08:12:46.985Z,14.12
2022-12-11T08:14:18.857Z,14.13
2022-12-11T08:15:50.451Z,14.11
2022-12-11T08:17:27.421Z,14.15
2022-12-11T08:19:01.115Z,14.22
2022-12-11T08:20:35.919Z,14.30
2022-12-11T08:22:07.465Z,14.37
2022-12-11T08:23:47.132Z,14.36
2022-12-11T08:25:29.304Z,14.37
2022-12-11T08:27:14.066Z,14.38
2022-12-11T08:28:48.231Z,14.38
2022-12-11T08:30:30.438Z,14.45
2022-12-11T08:32:13.408Z,14.53
2022-12-11T08:33:45.132Z,14.67
2022-12-11T08:35:20.230Z,14.80
2022-12-11T08:36:55.481Z,14.84
2022-12-11T08:38:28.903Z,14.94
2022-12-11T08:40:01.771Z,15.01
2022-12-11T08:41:44.343Z,15.08
2022-12-11T08:43:31.264Z,15.20
2022-12-11T08:45:04.890Z,15.34
2022-12-11T08:47:02.342Z,15.44
2022-12-11T08:48:40.302Z,15.57
2022-12-11T08:50:22.433Z,15.66
2022-12-11T08:52:00.705Z,15.75
2022-12-11T08:53:38.036Z,15.82
2022-12-11T08:55:10.326Z,15.89
2022-12-11T08:56:57.833Z,15.93
2022-12-11T08:58:33.112Z,16.08
2022-12-11T09:00:07.167Z,16.15
2022-12-11T09:01:39.059Z,16.31
2022-12-11T09:03:16.817Z,16.38
2022-12-11T09:04:49.696Z,16.41
2022-12-11T09:06:24.101Z,16.40
2022-12-11T09:07:56.401Z,16.39
2022-12-11T09:09:28.235Z,16.39
2022-12-11T09:11:08.891Z,16.29
2022-12-11T09:12:44.839Z,16.25
2022-12-11T09:14:17.957Z,16.21
2022-12-11T09:16:01.891Z,16.12
2022-12-11T09:17:37.350Z,15.90
2022-12-11T09:19:15.406Z,15.81
2022-12-11T09:20:48.472Z,15.73
2022-12-11T09:22:24.939Z,15.70
2022-12-11T09:23:59.515Z,15.71
2022-12-11T09:25:31.485Z,15.81
2022-12-11T09:27:03.878Z,15.91
2022-12-11T09:28:41.370Z,15.95
2022-12-11T09:30:24.501Z,15.98
2022-12-11T09:32:00.471Z,16.03
2022-12-11T09:33:33.276Z,16.04
2022-12-11T09:35:10.171Z,16.00
2022-12-11T09:36:44.675Z,15.94
2022-12-11T09:38:18.443Z,15.92
2022-12-11T09:40:07.084Z,15.96
2022-12-11T09:42:00.983Z,15.95
2022-12-11T09:43:48.634Z,15.94
2022-12-11T09:45:25.556Z,15.92
2022-12-11T09:46:58.173Z,15.86
2022-12-11T09:48:38.501Z,15.79
2022-12-11T09:50:12.401Z,15.76
2022-12-11T09:51:56.451Z,15.76
2022-12-11T09:53:51.577Z,15.75
2022-12-11T09:55:30.654Z,15.73
2022-12-11T09:57:24.090Z,15.72
2022-12-11T09:59:20.040Z,15.68
2022-12-11T10:01:20.759Z,15.53
2022-12-11T10:03:18.772Z,15.47
2022-12-11T10:04:57.101Z,15.44
2022-12-11T10:06:43.195Z,15.41
2022-12-11T10:08:23.674Z,15.41
2022-12-11T10:10:09.180Z,15.43
2022-12-11T10:11:55.912Z,15.42
2022-12-11T10:13:35.860Z,15.37
2022-12-11T10:15:29.509Z,15.34
2022-12-11T10:17:04.923Z,15.32
2022-12-11T10:18:47.841Z,15.33
2022-12-11T10:20:34.337Z,15.37
2022-12-11T10:22:12.634Z,15.45
2022-12-11T10:23:53.665Z,15.50
2022-12-11T10:25:37.470Z,15.48
2022-12-11T10:27:30.694Z,15.52
2022-12-11T10:29:34.417Z,15.56
2022-12-11T10:31:24.290Z,15.60
2022-12-11T10:33:16.537Z,15.63
2022-12-11T10:34:48.688Z,15.61
2022-12-11T10:36:25.976Z,15.58
2022-12-11T10:38:10.190Z,15.53
2022-12-11T10:39:47.890Z,15.55
2022-12-11T10:41:30.728Z,15.53
2022-12-11T10:43:02.261Z,15.49
2022-12-11T10:44:44.924Z,15.45
2022-12-11T10:46:17.035Z,15.43
2022-12-11T10:47:55.333Z,15.40
2022-12-11T10:49:33.707Z,15.35
2022-12-11T10:51:06.127Z,15.31
2022-12-11T10:52:38.948Z,15.23
2022-12-11T10:54:29.569Z,15.18
2022-12-11T10:56:06.555Z,15.08
2022-12-11T10:57:57.408Z,15.06
2022-12-11T10:59:39.158Z,15.07
2022-12-11T11:01:41.557Z,15.09
2022-12-11T11:03:26.311Z,15.14
2022-12-11T11:04:59.521Z,15.17
2022-12-11T11:06:46.915Z,15.22
2022-12-11T11:08:23.182Z,15.25
2022-12-11T11:10:15.111Z,15.26
2022-12-11T11:11:50.156Z,15.21
2022-12-11T11:15:17.092Z,15.19
2022-12-11T11:16:50.427Z,15.20
2022-12-11T11:18:29.122Z,15.14
2022-12-11T11:20:04.565Z,15.12
2022-12-11T11:21:37.886Z,15.10
2022-12-11T11:23:19.359Z,15.06
2022-12-11T11:25:12.987Z,15.03
2022-12-11T11:27:12.713Z,15.01
2022-12-11T11:28:49.196Z,15.00
2022-12-11T11:30:30.046Z,14.96
2022-12-11T11:32:04.004Z,14.96
2022-12-11T11:33:44.866Z,14.94
2022-12-11T11:35:25.337Z,14.91
2022-12-11T11:36:58.172Z,14.89
2022-12-11T11:38:59.001Z,14.94
2022-12-11T11:40:39.995Z,14.95
2022-12-11T11:42:13.171Z,14.92
2022-12-11T11:43:45.728Z,14.95
2022-12-11T11:45:22.498Z,14.95
2022-12-11T11:47:02.059Z,14.94
2022-12-11T11:48:48.757Z,14.93
2022-12-11T11:50:39.665Z,14.89
2022-12-11T11:52:17.540Z,14.77
2022-12-11T11:54:01.858Z,14.70
2022-12-11T11:57:59.952Z,14.64
2022-12-11T11:59:37.209Z,14.66
2022-12-11T12:01:13.412Z,14.64
2022-12-11T12:02:53.772Z,14.62
2022-12-11T12:04:31.731Z,14.64
2022-12-11T12:06:15.583Z,14.61
2022-12-11T12:08:05.976Z,14.53
2022-12-11T12:09:40.749Z,14.45
2022-12-11T12:11:18.533Z,14.45
2022-12-11T12:12:50.233Z,14.46
2022-12-11T12:14:52.163Z,14.46
2022-12-11T12:18:27.600Z,14.31
2022-12-11T12:20:06.291Z,14.21
2022-12-11T12:22:09.005Z,14.12
2022-12-11T12:23:48.044Z,14.04
2022-12-11T12:25:25.863Z,14.05
2022-12-11T12:27:43.674Z,14.00
2022-12-11T12:29:22.110Z,13.94
2022-12-11T12:31:17.168Z,13.91
2022-12-11T12:35:09.901Z,13.86
2022-12-11T12:37:22.902Z,13.80
2022-12-11T12:39:26.367Z,13.75
2022-12-11T12:41:09.746Z,13.75
2022-12-11T12:42:52.814Z,13.74
2022-12-11T12:44:32.179Z,13.74
2022-12-11T12:46:28.044Z,13.71
2022-12-11T12:48:02.670Z,13.64
2022-12-11T12:49:37.610Z,13.56
2022-12-11T12:53:02.300Z,13.45
2022-12-11T12:54:34.357Z,13.35
2022-12-11T12:56:06.173Z,13.29
2022-12-11T12:57:38.158Z,13.22
2022-12-11T12:59:23.280Z,13.18
2022-12-11T13:00:57.355Z,13.15
2022-12-11T13:02:38.948Z,13.17
2022-12-11T13:04:54.973Z,13.17
2022-12-11T13:06:31.163Z,13.13
2022-12-11T13:08:04.162Z,13.14
2022-12-11T13:09:36.274Z,13.14
2022-12-11T13:11:15.948Z,13.18
2022-12-11T13:12:53.135Z,13.20
2022-12-11T13:14:35.219Z,13.16
2022-12-11T13:16:16.202Z,13.13
2022-12-11T13:17:48.195Z,13.07
2022-12-11T13:19:31.529Z,13.08
2022-12-11T13:21:04.541Z,13.06
2022-12-11T13:23:00.760Z,13.02
2022-12-11T13:24:32.953Z,12.97
2022-12-11T13:26:34.732Z,13.00
2022-12-11T13:28:23.279Z,13.00
2022-12-11T13:30:34.903Z,13.01
2022-12-11T13:32:09.653Z,12.97
2022-12-11T13:33:55.860Z,12.94
2022-12-11T13:35:27.444Z,12.90
2022-12-11T13:36:59.037Z,12.85
2022-12-11T13:38:38.356Z,12.84
2022-12-11T13:40:27.700Z,12.75
2022-12-11T13:42:11.933Z,12.71
2022-12-11T13:43:53.053Z,12.67
2022-12-11T13:45:49.103Z,12.66
2022-12-11T13:47:21.110Z,12.60
2022-12-11T13:49:12.076Z,12.60
2022-12-11T13:50:46.556Z,12.60
2022-12-11T13:52:21.598Z,12.60
2022-12-11T13:54:11.596Z,12.58
2022-12-11T13:55:47.339Z,12.60
2022-12-11T13:57:23.131Z,12.58
2022-12-11T13:58:56.943Z,12.58
2022-12-11T14:00:30.458Z,12.56
2022-12-11T14:02:10.574Z,12.54
2022-12-11T14:03:46.442Z,12.49
2022-12-11T14:05:21.467Z,12.48
2022-12-11T14:06:53.090Z,12.44
2022-12-11T14:08:26.971Z,12.40
2022-12-11T14:10:02.522Z,12.39
2022-12-11T14:11:35.290Z,12.43
2022-12-11T14:13:07.918Z,12.44
2022-12-11T14:14:41.161Z,12.39
2022-12-11T14:16:14.664Z,12.38
2022-12-11T14:17:51.889Z,12.33
2022-12-11T14:19:25.236Z,12.34
2022-12-11T14:20:58.535Z,12.30
2022-12-11T14:22:34.043Z,12.27
2022-12-11T14:24:15.190Z,12.23
2022-12-11T14:25:57.098Z,12.16
2022-12-11T14:27:28.876Z,12.13
2022-12-11T14:29:02.890Z,12.12
2022-12-11T14:30:35.092Z,12.12
2022-12-11T14:32:12.574Z,12.14
2022-12-11T14:33:45.240Z,12.18
2022-12-11T14:35:26.885Z,12.23
2022-12-11T14:36:58.847Z,12.22
2022-12-11T14:38:34.561Z,12.21
2022-12-11T14:40:09.561Z,12.22
2022-12-11T14:41:44.462Z,12.25
2022-12-11T14:43:27.184Z,12.27
2022-12-11T14:45:02.192Z,12.24
2022-12-11T14:46:38.542Z,12.22
2022-12-11T14:48:13.188Z,12.20
2022-12-11T14:50:01.005Z,12.15
2022-12-11T14:51:35.095Z,12.17
2022-12-11T14:53:08.680Z,12.20
2022-12-11T14:54:43.237Z,12.23
2022-12-11T14:56:17.699Z,12.24
2022-12-11T14:59:46.865Z,12.30
2022-12-11T15:01:27.526Z,12.32
2022-12-11T15:02:59.268Z,12.29
2022-12-11T15:04:31.532Z,12.30
2022-12-11T15:06:21.370Z,12.34
2022-12-11T15:07:54.854Z,12.35
2022-12-11T15:09:30.805Z,12.31
2022-12-11T15:11:08.830Z,12.19
2022-12-11T15:12:44.391Z,12.07
2022-12-11T15:14:22.529Z,11.98
2022-12-11T15:15:54.130Z,11.98
2022-12-11T15:17:25.784Z,11.90
2022-12-11T15:18:59.013Z,11.75
2022-12-11T15:20:31.062Z,11.67
2022-12-11T15:22:06.265Z,11.58
2022-12-11T15:23:58.430Z,11.45
2022-12-11T15:25:30.340Z,11.29
2022-12-11T15:27:02.373Z,11.21
2022-12-11T15:28:34.999Z,11.14
2022-12-11T15:30:16.848Z,11.04
2022-12-11T15:31:58.507Z,10.97
2022-12-11T15:33:34.253Z,10.81
2022-12-11T15:35:25.884Z,10.68
2022-12-11T15:36:57.940Z,10.48
2022-12-11T15:38:31.437Z,10.25
2022-12-11T15:40:05.074Z,10.06
2022-12-11T15:41:39.175Z,10.00
2022-12-11T15:43:12.916Z,9.96
2022-12-11T15:44:46.652Z,9.92
2022-12-11T15:46:23.304Z,9.87
2022-12-11T15:47:55.197Z,9.79
2022-12-11T15:49:29.328Z,9.71
2022-12-11T15:51:01.171Z,9.68
2022-12-11T15:52:36.578Z,9.67
2022-12-11T15:54:09.725Z,9.68
2022-12-11T15:55:43.173Z,9.69
2022-12-11T15:57:19.212Z,9.66
2022-12-11T15:58:53.350Z,9.63
2022-12-11T16:00:30.620Z,9.60
2022-12-11T16:02:03.764Z,9.54
2022-12-11T16:03:36.198Z,9.48
2022-12-11T16:05:09.774Z,9.45
2022-12-11T16:06:46.065Z,9.40
2022-12-11T16:08:20.966Z,9.41
2022-12-11T16:09:52.881Z,9.37
2022-12-11T16:11:26.015Z,9.30
2022-12-11T16:12:59.988Z,9.29
2022-12-11T16:14:32.468Z,9.33
2022-12-11T16:16:06.228Z,9.35
2022-12-11T16:17:38.925Z,9.37
2022-12-11T16:19:12.777Z,9.39
2022-12-11T16:20:47.307Z,9.32
2022-12-11T16:22:19.716Z,9.26
2022-12-11T16:23:53.543Z,9.24
2022-12-11T16:25:26.781Z,9.27
2022-12-11T16:27:01.878Z,9.25
2022-12-11T16:28:34.232Z,9.29
2022-12-11T16:30:06.699Z,9.29
2022-12-11T16:31:38.754Z,9.21
2022-12-11T16:33:13.227Z,9.09
2022-12-11T16:34:46.819Z,9.00
2022-12-11T16:36:22.061Z,9.04
2022-12-11T16:37:54.349Z,9.04
2022-12-11T16:39:27.414Z,9.01
2022-12-11T16:41:00.492Z,8.98
2022-12-11T16:42:33.335Z,8.98
2022-12-11T16:44:07.588Z,8.92
2022-12-11T16:45:39.708Z,8.87
2022-12-11T16:47:11.783Z,8.84
2022-12-11T16:48:45.206Z,8.81
2022-12-11T16:50:18.947Z,8.74
2022-12-11T16:51:51.376Z,8.71
2022-12-11T16:53:24.154Z,8.67
2022-12-11T16:54:59.664Z,8.64
2022-12-11T16:56:32.901Z,8.61
2022-12-11T16:58:05.092Z,8.63
2022-12-11T16:59:37.688Z,8.65
2022-12-11T17:01:17.187Z,8.62
2022-12-11T17:02:49.785Z,8.57
2022-12-11T17:04:22.639Z,8.49
2022-12-11T17:05:55.201Z,8.44
2022-12-11T17:07:29.595Z,8.46
2022-12-11T17:09:01.731Z,8.54
2022-12-11T17:10:34.092Z,8.55
2022-12-11T17:12:06.644Z,8.58
2022-12-11T17:13:39.351Z,8.63
2022-12-11T17:15:11.846Z,8.66
2022-12-11T17:16:44.253Z,8.70
2022-12-11T17:18:17.875Z,8.66
2022-12-11T17:19:50.683Z,8.68
2022-12-11T17:21:24.549Z,8.65
2022-12-11T17:22:56.374Z,8.69
2022-12-11T17:24:28.578Z,8.72
2022-12-11T17:26:00.431Z,8.77
2022-12-11T17:27:33.475Z,8.78
2022-12-11T17:29:05.257Z,8.79
2022-12-11T17:30:43.725Z,8.77
2022-12-11T17:32:17.058Z,8.76
2022-12-11T17:33:50.124Z,8.74
2022-12-11T17:35:21.871Z,8.71
2022-12-11T17:36:53.698Z,8.71
2022-12-11T17:38:26.062Z,8.70
2022-12-11T17:39:57.925Z,8.60
2022-12-11T17:41:29.562Z,8.47
2022-12-11T17:43:01.552Z,8.41
2022-12-11T17:44:33.439Z,8.42
2022-12-11T17:46:05.483Z,8.44
2022-12-11T17:47:37.552Z,8.47
2022-12-11T17:49:09.984Z,8.49
2022-12-11T17:50:43.592Z,8.50
2022-12-11T17:52:15.467Z,8.49
2022-12-11T17:53:47.429Z,8.47
2022-12-11T17:55:19.333Z,8.43
2022-12-11T17:56:51.322Z,8.44
2022-12-11T17:58:23.433Z,8.41
2022-12-11T17:59:55.682Z,8.35
2022-12-11T18:01:28.593Z,8.31
2022-12-11T18:03:00.929Z,8.29
2022-12-11T18:04:33.069Z,8.28
2022-12-11T18:06:06.135Z,8.28
2022-12-11T18:07:38.208Z,8.30
2022-12-11T18:09:10.874Z,8.33
2022-12-11T18:10:43.181Z,8.33
2022-12-11T18:12:15.199Z,8.31
2022-12-11T18:13:48.587Z,8.35
2022-12-11T18:15:20.525Z,8.32
2022-12-11T18:16:53.793Z,8.30
2022-12-11T18:18:25.291Z,8.28
2022-12-11T18:19:56.901Z,8.30
2022-12-11T18:21:30.106Z,8.30
2022-12-11T18:23:01.758Z,8.33
2022-12-11T18:24:33.496Z,8.36
2022-12-11T18:26:05.018Z,8.41
2022-12-11T18:27:36.932Z,8.42
2022-12-11T18:29:08.716Z,8.38
2022-12-11T18:30:40.328Z,8.40
2022-12-11T18:32:12.507Z,8.44
2022-12-11T18:33:44.581Z,8.41
2022-12-11T18:35:16.469Z,8.41
2022-12-11T18:36:48.158Z,8.41
2022-12-11T18:38:19.817Z,8.37
2022-12-11T18:39:52.144Z,8.38
2022-12-11T18:41:23.956Z,8.37
2022-12-11T18:42:55.572Z,8.40
2022-12-11T18:44:27.120Z,8.43
2022-12-11T18:45:58.728Z,8.42
2022-12-11T18:47:30.705Z,8.44
2022-12-11T18:49:02.245Z,8.43
2022-12-11T18:50:34.096Z,8.43
2022-12-11T18:52:06.037Z,8.42
2022-12-11T18:53:39.473Z,8.43
2022-12-11T18:55:11.323Z,8.43
2022-12-11T18:56:43.207Z,8.43
2022-12-11T18:58:15.822Z,8.45
2022-12-11T18:59:50.345Z,8.43
2022-12-11T19:01:22.902Z,8.43
2022-12-11T19:02:54.570Z,8.40
2022-12-11T19:04:26.555Z,8.41
2022-12-11T19:05:58.656Z,8.40
2022-12-11T19:07:30.419Z,8.36
2022-12-11T19:09:02.687Z,8.35
2022-12-11T19:10:34.248Z,8.27
2022-12-11T19:12:06.054Z,8.21
2022-12-11T19:13:38.438Z,8.16
2022-12-11T19:15:10.940Z,8.08
2022-12-11T19:16:44.109Z,8.03
2022-12-11T19:18:15.753Z,7.98
2022-12-11T19:19:47.476Z,7.95
2022-12-11T19:21:19.100Z,7.94
2022-12-11T19:22:51.025Z,7.94
2022-12-11T19:24:24.734Z,7.97
2022-12-11T19:25:56.418Z,7.97
2022-12-11T19:27:28.148Z,7.99
2022-12-11T19:29:00.448Z,7.91
2022-12-11T19:30:32.018Z,7.86
2022-12-11T19:32:03.798Z,7.81
2022-12-11T19:33:35.317Z,7.76
2022-12-11T19:35:06.972Z,7.75
2022-12-11T19:36:38.615Z,7.70
2022-12-11T19:38:10.343Z,7.66
2022-12-11T19:39:42.024Z,7.59
2022-12-11T19:41:14.256Z,7.48
2022-12-11T19:42:46.055Z,7.38
2022-12-11T19:44:17.838Z,7.36
2022-12-11T19:45:49.400Z,7.36
2022-12-11T19:47:20.945Z,7.33
2022-12-11T19:48:53.876Z,7.32
2022-12-11T19:50:25.431Z,7.33
2022-12-11T19:51:56.935Z,7.30
2022-12-11T19:53:30.271Z,7.28
2022-12-11T19:55:05.202Z,7.28
2022-12-11T19:56:36.925Z,7.29
2022-12-11T19:58:08.574Z,7.29
2022-12-11T19:59:41.175Z,7.31
2022-12-11T20:01:19.358Z,7.31
2022-12-11T20:02:51.162Z,7.28
2022-12-11T20:04:22.881Z,7.22
2022-12-11T20:06:01.143Z,7.15
2022-12-11T20:07:32.906Z,7.11
2022-12-11T20:09:05.460Z,7.07
2022-12-11T20:10:37.133Z,7.06
2022-12-11T20:12:10.548Z,7.06
2022-12-11T20:13:42.359Z,7.05
2022-12-11T20:15:14.398Z,7.04
2022-12-11T20:17:09.993Z,7.04
2022-12-11T20:18:38.388Z,7.04
2022-12-11T20:20:10.413Z,7.00
2022-12-11T20:21:42.551Z,6.99
2022-12-11T20:23:14.246Z,6.99
2022-12-11T20:24:45.886Z,7.03
2022-12-11T20:26:18.679Z,7.07
2022-12-11T20:27:50.401Z,7.11
2022-12-11T20:29:22.283Z,7.11
2022-12-11T20:30:53.866Z,7.10
2022-12-11T20:32:25.806Z,7.10
2022-12-11T20:33:57.364Z,7.07
2022-12-11T20:35:29.017Z,7.00
2022-12-11T20:37:00.680Z,6.91
2022-12-11T20:38:34.655Z,6.79
2022-12-11T20:40:06.878Z,6.69
2022-12-11T20:41:38.576Z,6.61
2022-12-11T20:43:10.198Z,6.54
2022-12-11T20:44:47.335Z,6.52
2022-12-11T20:46:21.040Z,6.52
2022-12-11T20:47:52.731Z,6.52
2022-12-11T20:49:24.384Z,6.51
2022-12-11T20:50:59.216Z,6.51
2022-12-11T20:52:30.816Z,6.55
2022-12-11T20:54:02.350Z,6.59
2022-12-11T20:55:34.034Z,6.62
2022-12-11T20:57:05.691Z,6.65
2022-12-11T20:58:37.885Z,6.67
2022-12-11T21:00:09.977Z,6.67
2022-12-11T21:01:41.781Z,6.68
2022-12-11T21:03:13.761Z,6.66
2022-12-11T21:04:45.356Z,6.68
2022-12-11T21:06:19.830Z,6.70
2022-12-11T21:07:53.386Z,6.74
2022-12-11T21:09:25.366Z,6.74
2022-12-11T21:10:57.011Z,6.74
2022-12-11T21:12:31.719Z,6.73
2022-12-11T21:14:03.571Z,6.73
2022-12-11T21:15:35.858Z,6.74
2022-12-11T21:17:07.557Z,6.77
2022-12-11T21:18:40.015Z,6.79
2022-12-11T21:20:12.346Z,6.77
2022-12-11T21:21:45.229Z,6.70
2022-12-11T21:23:16.817Z,6.63